createdAt,value
2023-01-10T00:01:44.758Z,15.52
2023-01-10T00:04:11.921Z,16.10
2023-01-10T00:06:39.197Z,16.15
2023-01-10T00:09:10.605Z,17.35
2023-01-10T00:11:59.012Z,16.38
2023-01-10T00:14:29.330Z,16.98
2023-01-10T00:16:57.438Z,15.63
2023-01-10T00:19:24.779Z,15.00
2023-01-10T00:21:51.901Z,17.05
2023-01-10T00:24:23.116Z,16.80
2023-01-10T00:26:52.141Z,16.73
2023-01-10T00:29:27.936Z,16.70
2023-01-10T00:31:55.747Z,16.10
2023-01-10T00:34:23.338Z,14.38
2023-01-10T00:36:50.446Z,15.70
2023-01-10T00:39:20.467Z,14.75
2023-01-10T00:42:06.455Z,15.93
2023-01-10T00:44:33.608Z,15.50
2023-01-10T00:47:00.875Z,15.05
2023-01-10T00:49:27.929Z,14.52
2023-01-10T00:51:58.295Z,14.90
2023-01-10T00:54:26.161Z,15.23
2023-01-10T00:56:53.286Z,12.87
2023-01-10T00:59:20.584Z,12.40
2023-01-10T01:01:47.813Z,12.02
2023-01-10T01:04:15.005Z,11.93
2023-01-10T01:06:44.831Z,11.07
2023-01-10T01:09:11.897Z,11.05
2023-01-10T01:11:41.049Z,11.18
2023-01-10T01:14:08.288Z,11.48
2023-01-10T01:16:35.432Z,11.20
2023-01-10T01:19:02.609Z,11.60
2023-01-10T01:21:29.777Z,13.00
2023-01-10T01:23:57.153Z,11.77
2023-01-10T01:26:25.245Z,12.60
2023-01-10T01:28:52.488Z,11.88
2023-01-10T01:31:20.992Z,13.13
2023-01-10T01:33:51.740Z,13.52
2023-01-10T01:36:18.928Z,13.38
2023-01-10T01:38:46.010Z,13.20
2023-01-10T01:41:31.988Z,12.60
2023-01-10T01:44:00.223Z,12.98
2023-01-10T01:46:28.267Z,12.63
2023-01-10T01:48:55.589Z,10.65
2023-01-10T01:51:28.671Z,10.77
2023-01-10T01:54:09.222Z,10.10
2023-01-10T01:56:46.376Z,10.32
2023-01-10T01:59:17.539Z,9.73
2023-01-10T02:01:50.929Z,9.95
2023-01-10T02:04:27.810Z,10.00
2023-01-10T02:06:59.468Z,11.00
2023-01-10T02:09:45.443Z,10.32
2023-01-10T02:12:16.928Z,10.88
2023-01-10T02:14:47.218Z,10.32
2023-01-10T02:17:14.393Z,9.75
2023-01-10T02:19:57.214Z,9.70
2023-01-10T02:22:51.961Z,9.60
2023-01-10T02:26:06.296Z,9.55
2023-01-10T02:29:24.872Z,9.10
2023-01-10T02:32:35.478Z,9.88
2023-01-10T02:35:55.172Z,9.70
2023-01-10T02:38:45.759Z,10.88
2023-01-10T02:41:53.546Z,9.20
2023-01-10T02:44:34.792Z,9.07
2023-01-10T02:47:05.179Z,9.65
2023-01-10T02:49:45.990Z,9.30
2023-01-10T02:52:21.571Z,8.95
2023-01-10T02:54:52.036Z,8.95
2023-01-10T02:58:15.336Z,8.82
2023-01-10T03:00:46.185Z,8.82
2023-01-10T03:03:35.216Z,10.88
2023-01-10T03:06:34.964Z,10.85
2023-01-10T03:09:28.495Z,11.50
2023-01-10T03:12:12.810Z,10.85
2023-01-10T03:14:45.328Z,11.43
2023-01-10T03:17:13.941Z,11.40
2023-01-10T03:19:50.315Z,10.63
2023-01-10T03:22:18.563Z,11.55
2023-01-10T03:24:51.121Z,10.40
2023-01-10T03:28:04.739Z,11.70
2023-01-10T03:30:52.499Z,11.05
2023-01-10T03:33:27.748Z,10.75
2023-01-10T03:36:31.026Z,11.65
2023-01-10T03:39:28.247Z,11.80
2023-01-10T03:42:08.743Z,11.68
2023-01-10T03:45:04.838Z,10.07
2023-01-10T03:47:46.546Z,10.82
2023-01-10T03:50:25.035Z,10.65
2023-01-10T03:52:54.909Z,11.13
2023-01-10T03:55:26.928Z,11.13
2023-01-10T03:57:54.236Z,12.80
2023-01-10T04:00:21.781Z,12.15
2023-01-10T04:02:48.814Z,11.70
2023-01-10T04:05:16.101Z,11.73
2023-01-10T04:07:45.811Z,11.90
2023-01-10T04:10:16.117Z,13.73
2023-01-10T04:12:43.491Z,12.32
2023-01-10T04:15:10.980Z,12.55
2023-01-10T04:17:38.076Z,11.77
2023-01-10T04:20:06.072Z,10.90
2023-01-10T04:22:35.409Z,9.57
2023-01-10T04:25:02.569Z,10.90
2023-01-10T04:27:29.661Z,8.80
2023-01-10T04:29:56.818Z,9.80
2023-01-10T04:32:23.878Z,10.52
2023-01-10T04:34:54.008Z,10.57
2023-01-10T04:37:21.337Z,10.30
2023-01-10T04:39:48.417Z,10.95
2023-01-10T04:42:21.046Z,12.15
2023-01-10T04:44:50.344Z,12.52
2023-01-10T04:47:17.609Z,11.55
2023-01-10T04:49:46.159Z,11.63
2023-01-10T04:52:13.299Z,12.98
2023-01-10T04:54:40.363Z,10.70
2023-01-10T04:57:12.740Z,9.98
2023-01-10T04:59:39.854Z,9.70
2023-01-10T05:02:07.054Z,9.07
2023-01-10T05:04:34.189Z,9.23
2023-01-10T05:07:01.289Z,10.85
2023-01-10T05:09:28.427Z,9.48
2023-01-10T05:11:55.928Z,11.30
2023-01-10T05:14:23.253Z,11.82
2023-01-10T05:16:52.837Z,12.43
2023-01-10T05:19:19.967Z,12.70
2023-01-10T05:21:47.040Z,14.65
2023-01-10T05:24:14.307Z,13.82
2023-01-10T05:26:41.446Z,14.20
2023-01-10T05:29:14.583Z,13.82
2023-01-10T05:31:44.610Z,12.77
2023-01-10T05:34:13.294Z,13.10
2023-01-10T05:36:40.592Z,13.57
2023-01-10T05:39:10.427Z,11.63
2023-01-10T05:41:37.564Z,13.25
2023-01-10T05:44:04.749Z,15.20
2023-01-10T05:46:31.891Z,14.45
2023-01-10T05:48:59.133Z,16.85
2023-01-10T05:51:26.630Z,15.25
2023-01-10T05:54:12.459Z,15.75
2023-01-10T05:56:57.772Z,13.55
2023-01-10T05:59:43.309Z,14.32
2023-01-10T06:02:28.814Z,15.15
2023-01-10T06:05:14.682Z,14.77
2023-01-10T06:08:00.167Z,16.60
2023-01-10T06:10:45.803Z,15.93
2023-01-10T06:13:32.211Z,16.17
2023-01-10T06:16:18.101Z,15.13
2023-01-10T06:19:04.227Z,17.40
2023-01-10T06:21:50.080Z,14.35
2023-01-10T06:24:36.357Z,15.45
2023-01-10T06:27:22.397Z,16.13
2023-01-10T06:30:10.151Z,16.15
2023-01-10T06:33:08.689Z,16.77
2023-01-10T06:35:54.474Z,16.20
2023-01-10T06:38:40.188Z,17.80
2023-01-10T06:41:25.980Z,19.50
2023-01-10T06:44:11.457Z,18.55
2023-01-10T06:46:57.249Z,19.17
2023-01-10T06:49:42.815Z,18.45
2023-01-10T06:52:28.324Z,19.10
2023-01-10T06:55:14.092Z,18.45
2023-01-10T06:58:02.721Z,18.98
2023-01-10T07:00:48.554Z,19.88
2023-01-10T07:03:34.330Z,21.50
2023-01-10T07:06:20.571Z,20.95
2023-01-10T07:09:07.739Z,19.27
2023-01-10T07:11:52.995Z,22.63
2023-01-10T07:14:38.523Z,20.27
2023-01-10T07:17:23.867Z,21.00
2023-01-10T07:20:10.685Z,21.17
2023-01-10T07:23:00.671Z,19.88
2023-01-10T07:25:46.245Z,19.08
2023-01-10T07:28:34.346Z,18.77
2023-01-10T07:31:22.869Z,18.40
2023-01-10T07:34:08.845Z,19.40
2023-01-10T07:36:54.183Z,18.75
2023-01-10T07:39:40.607Z,19.60
2023-01-10T07:42:26.324Z,19.67
2023-01-10T07:45:11.864Z,19.42
2023-01-10T07:48:03.241Z,21.60
2023-01-10T07:50:48.943Z,22.10
2023-01-10T07:53:47.324Z,23.23
2023-01-10T07:56:32.863Z,21.58
2023-01-10T07:59:18.411Z,19.83
2023-01-10T08:02:04.132Z,19.83
2023-01-10T08:04:49.662Z,24.75
2023-01-10T08:07:35.322Z,30.58
2023-01-10T08:10:21.078Z,30.77
2023-01-10T08:13:17.736Z,32.35
2023-01-10T08:16:07.359Z,27.83
2023-01-10T08:18:53.063Z,28.10
2023-01-10T08:21:38.459Z,27.80
2023-01-10T08:24:23.962Z,26.38
2023-01-10T08:27:09.358Z,24.73
2023-01-10T08:29:54.768Z,24.25
2023-01-10T08:32:40.638Z,24.20
2023-01-10T08:35:27.273Z,25.35
2023-01-10T08:38:13.238Z,23.33
2023-01-10T08:40:58.833Z,23.10
2023-01-10T08:43:44.422Z,25.25
2023-01-10T08:46:30.042Z,25.85
2023-01-10T08:49:16.017Z,25.58
2023-01-10T08:52:02.650Z,23.45
2023-01-10T08:54:48.162Z,23.67
2023-01-10T08:57:33.598Z,22.92
2023-01-10T09:00:19.695Z,22.58
2023-01-10T09:03:07.712Z,22.48
2023-01-10T09:05:53.642Z,23.67
2023-01-10T09:08:39.259Z,22.88
2023-01-10T09:11:24.826Z,24.15
2023-01-10T09:14:10.238Z,23.73
2023-01-10T09:16:55.667Z,24.42
2023-01-10T09:19:41.199Z,24.17
2023-01-10T09:22:27.338Z,25.02
2023-01-10T09:25:12.725Z,23.52
2023-01-10T09:27:59.938Z,22.98
2023-01-10T09:30:46.253Z,24.05
2023-01-10T09:33:45.259Z,21.42
2023-01-10T09:36:33.240Z,21.23
2023-01-10T09:39:18.925Z,22.27
2023-01-10T09:42:29.125Z,22.27
2023-01-10T09:45:55.771Z,21.33
2023-01-10T09:48:58.257Z,20.90
2023-01-10T09:51:50.939Z,21.65
2023-01-10T09:54:42.290Z,21.65
2023-01-10T09:57:29.960Z,22.10
2023-01-10T10:00:21.428Z,20.75
2023-01-10T10:03:51.147Z,21.65
2023-01-10T10:06:36.930Z,19.58
2023-01-10T10:09:29.953Z,20.45
2023-01-10T10:12:16.286Z,19.83
2023-01-10T10:15:24.220Z,21.48
2023-01-10T10:18:24.474Z,22.10
2023-01-10T10:21:51.475Z,20.65
2023-01-10T10:25:03.048Z,19.75
2023-01-10T10:28:16.836Z,18.90
2023-01-10T10:31:53.463Z,19.40
2023-01-10T10:34:48.053Z,20.23
2023-01-10T10:37:45.407Z,20.88
2023-01-10T10:40:37.617Z,21.50
2023-01-10T10:43:31.183Z,20.23
2023-01-10T10:46:20.459Z,19.48
2023-01-10T10:49:22.227Z,19.63
2023-01-10T10:52:34.487Z,20.92
2023-01-10T10:55:33.209Z,19.52
2023-01-10T10:58:19.253Z,20.92
2023-01-10T11:01:04.986Z,20.25
2023-01-10T11:04:12.102Z,20.42
2023-01-10T11:06:57.517Z,21.10
2023-01-10T11:09:51.567Z,22.60
2023-01-10T11:12:42.128Z,22.83
2023-01-10T11:15:48.818Z,23.80
2023-01-10T11:18:35.059Z,25.45
2023-01-10T11:21:22.492Z,26.23
2023-01-10T11:24:30.814Z,25.95
2023-01-10T11:27:43.695Z,26.75
2023-01-10T11:30:33.062Z,24.52
2023-01-10T11:33:28.370Z,24.90
2023-01-10T11:36:15.544Z,25.23
2023-01-10T11:39:04.231Z,24.02
2023-01-10T11:41:52.495Z,24.67
2023-01-10T11:44:38.193Z,25.48
2023-01-10T11:47:25.174Z,24.27
2023-01-10T11:50:12.212Z,25.67
2023-01-10T11:52:58.352Z,25.25
2023-01-10T11:55:48.317Z,26.75
2023-01-10T11:58:36.667Z,25.75
2023-01-10T12:01:48.340Z,25.33
2023-01-10T12:04:43.285Z,26.08
2023-01-10T12:07:28.970Z,25.20
2023-01-10T12:10:22.643Z,24.80
2023-01-10T12:13:16.985Z,24.98
2023-01-10T12:16:22.544Z,24.85
2023-01-10T12:19:13.352Z,26.33
2023-01-10T12:22:04.173Z,27.25
2023-01-10T12:24:52.346Z,27.08
2023-01-10T12:27:38.042Z,27.90
2023-01-10T12:30:39.212Z,26.55
2023-01-10T12:33:35.914Z,27.67
2023-01-10T12:36:46.619Z,27.42
2023-01-10T12:39:37.544Z,27.77
2023-01-10T12:43:01.849Z,28.17
2023-01-10T12:46:33.631Z,28.25
2023-01-10T12:49:31.850Z,26.27
2023-01-10T12:52:43.026Z,26.80
2023-01-10T12:55:36.906Z,26.50
2023-01-10T12:58:54.148Z,27.83
2023-01-10T13:01:43.038Z,27.52
2023-01-10T13:04:34.510Z,25.42
2023-01-10T13:07:21.618Z,25.95
2023-01-10T13:10:09.605Z,26.88
2023-01-10T13:13:13.301Z,26.88
2023-01-10T13:16:29.361Z,26.10
2023-01-10T13:19:17.644Z,25.08
2023-01-10T13:22:23.328Z,24.95
2023-01-10T13:25:23.325Z,21.23
2023-01-10T13:28:24.138Z,19.67
2023-01-10T13:31:33.708Z,17.90
2023-01-10T13:34:20.272Z,17.15
2023-01-10T13:37:17.228Z,16.02
2023-01-10T13:40:04.514Z,14.18
2023-01-10T13:43:33.483Z,15.02
2023-01-10T13:46:20.352Z,14.32
2023-01-10T13:49:14.739Z,13.57
2023-01-10T13:52:31.094Z,13.18
2023-01-10T13:55:28.857Z,14.10
2023-01-10T13:58:14.610Z,13.82
2023-01-10T14:01:20.621Z,12.88
2023-01-10T14:04:07.939Z,13.40
2023-01-10T14:07:01.072Z,13.32
2023-01-10T14:09:49.765Z,13.57
2023-01-10T14:13:00.049Z,12.73
2023-01-10T14:15:47.710Z,13.50
2023-01-10T14:18:39.187Z,13.93
2023-01-10T14:21:28.390Z,14.27
2023-01-10T14:24:43.841Z,14.82
2023-01-10T14:27:46.688Z,15.38
2023-01-10T14:30:39.422Z,14.88
2023-01-10T14:33:25.214Z,17.20
2023-01-10T14:36:19.983Z,18.30
2023-01-10T14:39:07.847Z,17.30
2023-01-10T14:42:02.827Z,17.48
2023-01-10T14:45:16.446Z,18.55
2023-01-10T14:48:30.825Z,17.60
2023-01-10T14:51:28.998Z,18.48
2023-01-10T14:54:15.385Z,17.27
2023-01-10T14:57:01.019Z,16.55
2023-01-10T14:59:51.519Z,16.35
2023-01-10T15:02:40.056Z,16.45
2023-01-10T15:05:28.604Z,17.85
2023-01-10T15:08:29.015Z,16.50
2023-01-10T15:11:15.368Z,16.30
2023-01-10T15:14:08.247Z,15.43
2023-01-10T15:17:02.120Z,16.00
2023-01-10T15:19:52.499Z,14.98
2023-01-10T15:22:37.923Z,15.52
2023-01-10T15:25:31.630Z,15.82
2023-01-10T15:28:21.812Z,17.65
2023-01-10T15:31:11.318Z,18.92
2023-01-10T15:33:58.090Z,21.83
2023-01-10T15:36:55.737Z,26.65
2023-01-10T15:39:41.482Z,28.23
2023-01-10T15:42:28.397Z,28.88
2023-01-10T15:45:37.578Z,28.90
2023-01-10T15:48:40.781Z,27.83
2023-01-10T15:54:19.873Z,28.25
2023-01-10T15:57:29.949Z,30.08
2023-01-10T16:00:19.013Z,30.88
2023-01-10T16:03:24.261Z,31.70
2023-01-10T16:06:36.058Z,32.63
2023-01-10T16:09:23.219Z,31.38
2023-01-10T16:12:52.084Z,30.00
2023-01-10T16:15:44.300Z,25.85
2023-01-10T16:18:29.640Z,26.70
2023-01-10T16:21:16.334Z,23.67
2023-01-10T16:24:02.850Z,24.42
2023-01-10T16:26:50.149Z,24.00
2023-01-10T16:29:35.682Z,22.58
2023-01-10T16:32:22.256Z,23.05
2023-01-10T16:35:08.316Z,22.42
2023-01-10T16:37:58.181Z,22.38
2023-01-10T16:41:33.066Z,23.17
2023-01-10T16:44:19.394Z,23.30
2023-01-10T16:47:06.967Z,24.00
2023-01-10T16:49:52.995Z,25.42
2023-01-10T16:52:38.474Z,27.70
2023-01-10T16:55:41.929Z,26.48
2023-01-10T16:58:27.283Z,25.80
2023-01-10T17:01:20.268Z,28.13
2023-01-10T17:04:08.208Z,29.48
2023-01-10T17:06:54.195Z,32.95
2023-01-10T17:09:39.788Z,36.58
2023-01-10T17:12:37.723Z,37.75
2023-01-10T17:15:23.572Z,37.85
2023-01-10T17:18:10.978Z,37.50
2023-01-10T17:20:58.072Z,36.40
2023-01-10T17:23:44.615Z,36.22
2023-01-10T17:26:30.326Z,35.20
2023-01-10T17:29:16.004Z,34.10
2023-01-10T17:32:02.006Z,34.67
2023-01-10T17:34:48.004Z,33.45
2023-01-10T17:37:33.787Z,31.92
2023-01-10T17:40:19.589Z,30.60
2023-01-10T17:43:05.630Z,31.95
2023-01-10T17:45:51.703Z,31.48
2023-01-10T17:48:37.637Z,31.05
2023-01-10T17:51:24.722Z,29.92
2023-01-10T17:54:10.584Z,29.92
2023-01-10T17:56:56.088Z,28.23
2023-01-10T17:59:41.515Z,28.48
2023-01-10T18:02:27.311Z,28.98
2023-01-10T18:05:13.122Z,30.75
2023-01-10T18:08:01.277Z,29.40
2023-01-10T18:10:48.359Z,28.80
2023-01-10T18:13:33.922Z,28.17
2023-01-10T18:16:19.475Z,31.40
2023-01-10T18:19:05.364Z,32.88
2023-01-10T18:21:50.911Z,33.65
2023-01-10T18:24:36.260Z,33.17
2023-01-10T18:27:26.091Z,33.08
2023-01-10T18:30:11.930Z,31.13
2023-01-10T18:32:57.819Z,32.38
2023-01-10T18:35:44.262Z,32.08
2023-01-10T18:38:36.740Z,31.35
2023-01-10T18:41:22.562Z,32.67
2023-01-10T18:44:08.415Z,32.53
2023-01-10T18:46:53.890Z,31.58
2023-01-10T18:49:39.205Z,27.42
2023-01-10T18:52:25.144Z,27.55
2023-01-10T18:55:10.820Z,27.15
2023-01-10T18:57:56.821Z,26.98
2023-01-10T19:00:43.129Z,27.58
2023-01-10T19:03:29.070Z,27.80
2023-01-10T19:08:06.057Z,26.40
2023-01-10T19:11:12.487Z,26.23
2023-01-10T19:13:58.785Z,25.35
2023-01-10T19:16:44.413Z,26.63
2023-01-10T19:19:30.000Z,25.20
2023-01-10T19:22:15.459Z,26.92
2023-01-10T19:25:00.731Z,25.20
2023-01-10T19:27:46.185Z,22.98
2023-01-10T19:30:31.525Z,21.50
2023-01-10T19:33:17.122Z,22.35
2023-01-10T19:36:07.695Z,23.33
2023-01-10T19:38:58.931Z,24.33
2023-01-10T19:41:44.557Z,21.73
2023-01-10T19:44:30.376Z,23.38
2023-01-10T19:47:16.558Z,23.38
2023-01-10T19:50:02.193Z,24.23
2023-01-10T19:52:47.735Z,24.33
2023-01-10T19:55:36.207Z,25.55
2023-01-10T19:58:21.905Z,26.17
2023-01-10T20:01:21.343Z,26.90
2023-01-10T20:04:07.263Z,26.77
2023-01-10T20:06:52.979Z,26.73
2023-01-10T20:09:38.953Z,27.75
2023-01-10T20:12:25.530Z,29.70
2023-01-10T20:15:11.635Z,30.40
2023-01-10T20:17:57.421Z,30.23
2023-01-10T20:20:44.386Z,28.52
2023-01-10T20:23:31.412Z,28.27
2023-01-10T20:26:27.942Z,30.40
2023-01-10T20:29:14.720Z,29.70
2023-01-10T20:32:02.525Z,28.70
2023-01-10T20:34:49.833Z,28.95
2023-01-10T20:37:36.019Z,30.67
2023-01-10T20:40:25.003Z,31.02
2023-01-10T20:43:10.476Z,29.13
2023-01-10T20:45:56.102Z,28.95
2023-01-10T20:48:42.732Z,30.13
2023-01-10T20:51:32.816Z,30.88
2023-01-10T20:54:18.270Z,29.27
2023-01-10T20:57:04.222Z,27.98
2023-01-10T20:59:50.080Z,28.27
2023-01-10T21:02:35.835Z,26.30
2023-01-10T21:05:21.775Z,26.50
2023-01-10T21:08:07.350Z,25.35
2023-01-10T21:10:53.540Z,24.52
2023-01-10T21:13:39.682Z,24.35
2023-01-10T21:16:25.743Z,24.58
2023-01-10T21:19:13.613Z,23.45
2023-01-10T21:22:04.667Z,24.05
2023-01-10T21:24:52.299Z,24.17
2023-01-10T21:27:37.769Z,25.33
2023-01-10T21:30:23.755Z,26.10
2023-01-10T21:33:11.612Z,29.40
2023-01-10T21:35:58.681Z,26.98
2023-01-10T21:38:44.988Z,28.27
2023-01-10T21:41:48.975Z,27.80
2023-01-10T21:44:34.449Z,26.15
2023-01-10T21:47:19.973Z,26.27
2023-01-10T21:50:08.002Z,28.98
2023-01-10T21:52:53.651Z,29.05
2023-01-10T21:55:39.673Z,30.27
2023-01-10T21:58:25.630Z,30.15
2023-01-10T22:01:11.517Z,27.30
2023-01-10T22:03:57.481Z,26.67
2023-01-10T22:06:43.293Z,26.42
2023-01-10T22:09:29.377Z,25.80
2023-01-10T22:12:15.395Z,25.02
2023-01-10T22:15:01.280Z,25.38
2023-01-10T22:17:48.189Z,25.60
2023-01-10T22:20:33.581Z,25.00
2023-01-10T22:23:18.956Z,25.70
2023-01-10T22:26:12.307Z,26.08
2023-01-10T22:28:57.696Z,24.73
2023-01-10T22:31:43.636Z,25.20
2023-01-10T22:34:29.376Z,24.15
2023-01-10T22:37:16.386Z,24.40
2023-01-10T22:40:01.930Z,23.88
2023-01-10T22:42:52.494Z,23.67
2023-01-10T22:45:43.174Z,25.58
2023-01-10T22:48:28.832Z,23.88
2023-01-10T22:51:16.339Z,26.23
2023-01-10T22:54:04.101Z,28.35
2023-01-10T22:56:49.779Z,26.13
2023-01-10T23:02:40.343Z,23.58
2023-01-10T23:05:26.866Z,22.42
2023-01-10T23:08:12.457Z,24.50
2023-01-10T23:10:58.178Z,24.70
2023-01-10T23:13:45.673Z,23.33
2023-01-10T23:16:32.646Z,24.08
2023-01-10T23:19:18.410Z,24.45
2023-01-10T23:22:04.061Z,24.95
2023-01-10T23:24:49.363Z,23.60
2023-01-10T23:27:35.299Z,25.10
2023-01-10T23:30:22.517Z,23.38
2023-01-10T23:33:08.184Z,23.95
2023-01-10T23:35:53.675Z,20.73
2023-01-10T23:38:40.847Z,21.75
2023-01-10T23:41:26.663Z,20.25
2023-01-10T23:44:12.212Z,20.35
2023-01-10T23:46:58.031Z,19.27
2023-01-10T23:49:43.643Z,20.33
2023-01-10T23:52:29.386Z,18.48
2023-01-10T23:55:15.467Z,17.83
2023-01-10T23:58:01.018Z,20.20
